createdAt,value
2022-08-17T00:02:25.896Z,59.27
2022-08-17T00:07:29.441Z,60.18
2022-08-17T00:12:43.155Z,59.55
2022-08-17T00:17:49.947Z,58.69
2022-08-17T00:23:03.565Z,58.89
2022-08-17T00:28:07.596Z,58.74
2022-08-17T00:33:16.232Z,58.30
2022-08-17T00:38:20.015Z,57.72
2022-08-17T00:43:30.769Z,57.38
2022-08-17T00:48:35.800Z,57.53
2022-08-17T00:53:43.333Z,57.53
2022-08-17T00:58:46.181Z,57.68
2022-08-17T01:03:51.901Z,58.51
2022-08-17T01:08:57.790Z,59.05
2022-08-17T01:14:00.778Z,59.63
2022-08-17T01:19:08.569Z,59.77
2022-08-17T01:24:12.806Z,59.72
2022-08-17T01:29:16.537Z,59.17
2022-08-17T01:34:20.590Z,59.15
2022-08-17T01:39:32.967Z,59.55
2022-08-17T01:44:36.242Z,59.27
2022-08-17T01:49:41.323Z,59.64
2022-08-17T01:54:48.616Z,59.68
2022-08-17T01:59:51.385Z,60.28
2022-08-17T02:04:54.206Z,60.78
2022-08-17T02:09:58.585Z,60.89
2022-08-17T02:15:02.718Z,61.29
2022-08-17T02:20:07.373Z,61.16
2022-08-17T02:25:14.207Z,61.07
2022-08-17T02:31:00.252Z,61.27
2022-08-17T02:35:40.435Z,61.10
2022-08-17T02:40:44.627Z,60.94
2022-08-17T02:45:48.037Z,61.41
2022-08-17T02:50:50.973Z,61.29
2022-08-17T02:55:55.155Z,61.44
2022-08-17T03:00:57.987Z,61.46
2022-08-17T03:06:01.966Z,61.67
2022-08-17T03:11:06.413Z,62.40
2022-08-17T03:16:09.793Z,62.35
2022-08-17T03:21:12.617Z,62.26
2022-08-17T03:26:16.802Z,62.01
2022-08-17T03:31:21.442Z,61.83
2022-08-17T03:36:24.308Z,61.53
2022-08-17T03:41:28.478Z,61.52
2022-08-17T03:46:48.791Z,61.79
2022-08-17T03:52:09.102Z,62.12
2022-08-17T03:57:14.057Z,62.42
2022-08-17T04:02:20.239Z,62.44
2022-08-17T04:07:27.466Z,62.57
2022-08-17T04:12:44.682Z,62.07
2022-08-17T04:17:47.684Z,62.07
2022-08-17T04:22:58.565Z,61.92
2022-08-17T04:28:03.884Z,61.64
2022-08-17T04:33:13.991Z,61.64
2022-08-17T04:38:19.473Z,61.89
2022-08-17T04:43:25.302Z,61.79
2022-08-17T04:48:36.010Z,61.79
2022-08-17T04:53:41.131Z,61.27
2022-08-17T04:58:47.808Z,61.37
2022-08-17T05:03:50.715Z,61.27
2022-08-17T05:08:54.798Z,60.90
2022-08-17T05:14:00.133Z,60.80
2022-08-17T05:19:02.981Z,60.71
2022-08-17T05:24:10.994Z,60.03
2022-08-17T05:29:33.570Z,59.77
2022-08-17T05:34:38.233Z,59.19
2022-08-17T05:39:41.727Z,59.16
2022-08-17T05:44:45.971Z,59.03
2022-08-17T05:49:48.965Z,58.46
2022-08-17T05:55:04.393Z,58.54
2022-08-17T06:00:17.021Z,58.96
2022-08-17T06:05:37.095Z,58.74
2022-08-17T06:10:46.500Z,58.40
2022-08-17T06:16:03.802Z,57.95
2022-08-17T06:21:08.862Z,57.72
2022-08-17T06:26:17.104Z,57.38
2022-08-17T06:31:29.248Z,57.05
2022-08-17T06:36:49.444Z,55.59
2022-08-17T06:42:02.237Z,54.82
2022-08-17T06:47:12.462Z,55.22
2022-08-17T06:52:37.199Z,54.23
2022-08-17T06:57:52.718Z,53.31
2022-08-17T07:03:03.182Z,52.84
2022-08-17T07:08:12.625Z,52.71
2022-08-17T07:13:25.663Z,52.81
2022-08-17T07:18:33.116Z,50.40
2022-08-17T07:23:49.777Z,50.16
2022-08-17T07:28:52.781Z,49.13
2022-08-17T07:34:14.427Z,49.40
2022-08-17T07:39:27.827Z,47.38
2022-08-17T07:44:30.954Z,48.08
2022-08-17T07:49:40.440Z,47.27
2022-08-17T07:54:43.915Z,46.68
2022-08-17T08:00:19.518Z,45.92
2022-08-17T08:05:50.632Z,45.13
2022-08-17T08:11:01.477Z,45.33
2022-08-17T08:16:24.222Z,45.73
2022-08-17T08:21:41.767Z,44.37
2022-08-17T08:26:55.488Z,43.29
2022-08-17T08:32:08.280Z,43.83
2022-08-17T08:37:32.612Z,43.48
2022-08-17T08:42:45.557Z,43.36
2022-08-17T08:48:12.709Z,43.64
2022-08-17T08:53:36.532Z,42.32
2022-08-17T08:58:50.532Z,42.55
2022-08-17T09:04:25.270Z,41.49
2022-08-17T09:09:42.127Z,40.24
2022-08-17T09:14:52.634Z,40.28
2022-08-17T09:20:02.106Z,39.48
2022-08-17T09:25:11.055Z,39.44
2022-08-17T09:30:14.769Z,39.64
2022-08-17T09:35:22.810Z,39.11
2022-08-17T09:40:33.600Z,37.70
2022-08-17T09:45:43.702Z,36.13
2022-08-17T09:51:05.422Z,34.16
2022-08-17T09:56:31.629Z,33.66
2022-08-17T10:01:39.928Z,34.60
2022-08-17T10:06:52.618Z,35.17
2022-08-17T10:12:20.424Z,36.16
2022-08-17T10:17:31.146Z,35.66
2022-08-17T10:22:59.354Z,35.22
2022-08-17T10:28:19.786Z,35.57
2022-08-17T10:33:27.859Z,35.65
2022-08-17T10:38:47.052Z,36.18
2022-08-17T10:44:37.923Z,35.16
2022-08-17T10:49:35.799Z,35.18
2022-08-17T10:55:06.372Z,34.10
2022-08-17T11:00:15.921Z,33.94
2022-08-17T11:05:45.572Z,32.80
2022-08-17T11:11:07.581Z,34.45
2022-08-17T11:16:28.697Z,35.05
2022-08-17T11:21:59.394Z,34.54
2022-08-17T11:27:07.664Z,33.97
2022-08-17T11:32:36.956Z,34.28
2022-08-17T11:37:51.543Z,34.51
2022-08-17T11:43:25.323Z,34.86
2022-08-17T11:48:54.870Z,35.05
2022-08-17T11:54:28.934Z,35.09
2022-08-17T12:00:00.312Z,35.70
2022-08-17T12:05:27.262Z,34.74
2022-08-17T12:10:34.274Z,32.91
2022-08-17T12:15:42.290Z,31.57
2022-08-17T12:20:56.667Z,32.69
2022-08-17T12:26:05.875Z,33.57
2022-08-17T12:31:17.018Z,34.42
2022-08-17T12:36:25.900Z,34.94
2022-08-17T12:41:40.313Z,35.37
2022-08-17T12:46:51.290Z,35.84
2022-08-17T12:52:02.956Z,36.43
2022-08-17T12:57:15.714Z,36.09
2022-08-17T13:02:42.396Z,36.13
2022-08-17T13:07:47.618Z,35.85
2022-08-17T13:12:56.077Z,36.59
2022-08-17T13:18:07.726Z,36.70
2022-08-17T13:23:20.973Z,37.01
2022-08-17T13:28:35.547Z,36.84
2022-08-17T13:33:44.793Z,36.55
2022-08-17T13:38:51.124Z,35.98
2022-08-17T13:43:54.021Z,35.93
2022-08-17T13:49:03.001Z,35.62
2022-08-17T13:54:24.710Z,35.50
2022-08-17T13:59:55.309Z,35.55
2022-08-17T14:05:00.508Z,35.17
2022-08-17T14:10:09.056Z,35.33
2022-08-17T14:15:13.658Z,35.66
2022-08-17T14:20:19.932Z,35.08
2022-08-17T14:25:27.604Z,34.99
2022-08-17T14:30:30.824Z,35.03
2022-08-17T14:35:34.403Z,34.72
2022-08-17T14:40:39.206Z,35.36
2022-08-17T14:45:42.752Z,35.17
2022-08-17T14:50:46.365Z,34.84
2022-08-17T14:55:52.537Z,34.82
2022-08-17T15:00:55.410Z,34.67
2022-08-17T15:05:58.565Z,34.33
2022-08-17T15:11:04.691Z,34.81
2022-08-17T15:16:08.625Z,34.48
2022-08-17T15:21:11.635Z,34.39
2022-08-17T15:26:16.826Z,34.10
2022-08-17T15:31:20.065Z,34.41
2022-08-17T15:36:35.147Z,34.22
2022-08-17T15:41:39.402Z,32.76
2022-08-17T15:46:43.163Z,31.43
2022-08-17T15:51:46.474Z,32.03
2022-08-17T15:56:50.774Z,32.99
2022-08-17T16:03:13.250Z,31.59
2022-08-17T16:07:20.914Z,31.91
2022-08-17T16:12:29.165Z,31.10
2022-08-17T16:17:39.901Z,30.65
2022-08-17T16:22:45.758Z,31.66
2022-08-17T16:27:53.797Z,31.90
2022-08-17T16:32:58.677Z,32.60
2022-08-17T16:38:02.729Z,33.30
2022-08-17T16:43:10.723Z,33.89
2022-08-17T16:48:15.356Z,34.53
2022-08-17T16:53:20.157Z,34.51
2022-08-17T16:58:24.482Z,34.48
2022-08-17T17:03:30.210Z,35.02
2022-08-17T17:08:42.097Z,34.61
2022-08-17T17:13:54.090Z,34.71
2022-08-17T17:19:09.077Z,35.58
2022-08-17T17:24:17.922Z,35.81
2022-08-17T17:29:47.370Z,36.33
2022-08-17T17:34:56.069Z,35.37
2022-08-17T17:40:02.957Z,37.80
2022-08-17T17:45:15.923Z,39.44
2022-08-17T17:50:22.938Z,41.30
2022-08-17T17:55:34.629Z,41.16
2022-08-17T18:00:47.376Z,41.42
2022-08-17T18:06:05.539Z,42.12
2022-08-17T18:11:24.365Z,42.16
2022-08-17T18:16:32.152Z,42.03
2022-08-17T18:21:39.063Z,42.41
2022-08-17T18:26:50.492Z,42.58
2022-08-17T18:37:38.318Z,43.34
2022-08-17T18:42:41.201Z,42.70
2022-08-17T18:47:55.250Z,42.13
2022-08-17T18:53:21.348Z,41.49
2022-08-17T18:58:29.741Z,42.57
2022-08-17T19:03:32.641Z,46.17
2022-08-17T19:08:37.237Z,51.35
2022-08-17T19:13:45.151Z,52.31
2022-08-17T19:18:53.014Z,52.90
2022-08-17T19:24:04.825Z,54.58
2022-08-17T19:29:16.596Z,54.75
2022-08-17T19:34:33.248Z,55.39
2022-08-17T19:39:47.902Z,56.15
2022-08-17T19:45:01.695Z,57.01
2022-08-17T19:50:12.749Z,57.36
2022-08-17T19:55:26.540Z,58.12
2022-08-17T20:00:31.136Z,58.44
2022-08-17T20:06:01.047Z,59.71
2022-08-17T20:11:08.742Z,61.22
2022-08-17T20:16:12.318Z,61.94
2022-08-17T20:21:20.824Z,63.22
2022-08-17T20:26:29.279Z,64.03
2022-08-17T20:31:45.403Z,63.58
2022-08-17T20:37:00.415Z,63.87
2022-08-17T20:42:09.466Z,65.40
2022-08-17T20:47:21.784Z,65.20
2022-08-17T20:52:49.558Z,65.27
2022-08-17T20:57:53.941Z,65.83
2022-08-17T21:03:50.957Z,65.80
2022-08-17T21:08:58.902Z,67.58
2022-08-17T21:14:14.698Z,69.95
2022-08-17T21:19:44.386Z,68.89
2022-08-17T21:25:09.522Z,68.33
2022-08-17T21:30:22.581Z,69.24
2022-08-17T21:35:48.192Z,69.07
2022-08-17T21:40:55.129Z,68.90
2022-08-17T21:46:03.708Z,68.66
2022-08-17T21:51:12.083Z,69.62
2022-08-17T21:56:25.164Z,69.88
2022-08-17T22:01:31.669Z,69.21
2022-08-17T22:06:38.041Z,69.53
2022-08-17T22:11:58.033Z,69.93
2022-08-17T22:17:17.925Z,72.64
2022-08-17T22:22:28.045Z,73.35
2022-08-17T22:27:49.070Z,75.01
2022-08-17T22:32:53.318Z,78.01
2022-08-17T22:37:56.366Z,78.24
2022-08-17T22:43:01.532Z,77.85
2022-08-17T22:48:06.296Z,77.20
2022-08-17T22:53:41.732Z,78.50
2022-08-17T22:59:07.890Z,79.29
2022-08-17T23:04:16.052Z,79.03
2022-08-17T23:09:18.830Z,77.40
2022-08-17T23:14:22.458Z,77.10
2022-08-17T23:19:27.426Z,78.10
2022-08-17T23:24:35.566Z,77.38
2022-08-17T23:29:41.986Z,76.62
2022-08-17T23:34:48.021Z,77.19
2022-08-17T23:39:50.966Z,76.24
2022-08-17T23:44:53.843Z,78.12
2022-08-17T23:49:57.999Z,77.21
2022-08-17T23:55:06.368Z,76.55
